Buford, Wyoming
Current Conditions -  °F | °C
As of 11:56 PM on Saturday 25 Oct 2014 (Local Time) from KFEW Reporting Station
Clear Clear  
Wind Chill: 41°   Ceiling: Unl
Heat Index: 44°   Visibility: 10mi
Dew Point: 24°   Wind: 5mph
Humidity: 45%   Direction: 240°WSW
Pressure: 29.97"   Gusts: NA
Location:  41.12°N, 105.31°W
Report Text: KFEW 260556Z AUTO 24004KT 10SM CLR 07/M05 A2997 RMK AO2 SLP091 T00651047 10161 20039 402331014 57020 $
Loading
Personal Weather Stations






























Interactive Weather Map
Tropical Storm Tracking
New forecast layout! Learn more

10-Day Weather Forecast

Advertisements
Track Severe Weather on mobile